Time;durP1;ratioP1;P1;durP2;ratioP2;P2;SDS_P1;SDS_P2;PMS_P1;PMS_P2;Temp;Humidity;BMP_temperature;BMP_pressure;BME280_temperature;BME280_humidity;BME280_pressure;Samples;Min_cycle;Max_cycle;Signal;HPM_P1;HPM_P2
2022/01/30 00:00:09;;;;;;;0.85;0.40;;;;;;;;;;5098520;28;20203;-64
2022/01/30 00:02:38;;;;;;;0.40;0.35;;;;;;;;;;5098688;28;20617;-65
2022/01/30 00:05:06;;;;;;;0.77;0.50;;;;;;;;;;5098026;28;20204;-63
2022/01/30 00:07:33;;;;;;;1.02;0.50;;;;;;;;;;5097756;28;20252;-63
2022/01/30 00:10:00;;;;;;;0.40;0.38;;;;;;;;;;5098104;28;20220;-63
2022/01/30 00:12:38;;;;;;;0.57;0.40;;;;;;;;;;5097377;28;20724;-63
2022/01/30 00:15:06;;;;;;;0.52;0.40;;;;;;;;;;5097789;28;20203;-63
2022/01/30 00:17:39;;;;;;;0.40;0.40;;;;;;;;;;5097044;28;20718;-64
2022/01/30 00:20:15;;;;;;;0.40;0.40;;;;;;;;;;5097578;28;20212;-63
2022/01/30 00:22:48;;;;;;;0.40;0.40;;;;;;;;;;5096617;28;20206;-64
2022/01/30 00:25:18;;;;;;;0.98;0.52;;;;;;;;;;5097233;28;20222;-63
2022/01/30 00:27:50;;;;;;;0.60;0.30;;;;;;;;;;5097129;28;20234;-64
2022/01/30 00:30:18;;;;;;;0.38;0.35;;;;;;;;;;5096492;28;20203;-64
2022/01/30 00:32:46;;;;;;;0.57;0.40;;;;;;;;;;5097491;28;20555;-64
2022/01/30 00:35:15;;;;;;;1.15;0.50;;;;;;;;;;5097293;28;20268;-64
2022/01/30 00:37:43;;;;;;;0.70;0.30;;;;;;;;;;5097143;28;20214;-64
2022/01/30 00:40:12;;;;;;;0.77;0.47;;;;;;;;;;5097756;28;20586;-63
2022/01/30 00:42:40;;;;;;;0.40;0.40;;;;;;;;;;5096860;28;20302;-64
2022/01/30 00:45:08;;;;;;;2.65;0.30;;;;;;;;;;5097176;28;20214;-63
2022/01/30 00:47:35;;;;;;;0.90;0.40;;;;;;;;;;5097037;28;20199;-64
2022/01/30 00:50:03;;;;;;;1.40;0.38;;;;;;;;;;5097654;28;20222;-64
2022/01/30 00:52:31;;;;;;;0.45;0.40;;;;;;;;;;5097053;28;20601;-64
2022/01/30 00:54:59;;;;;;;1.50;0.52;;;;;;;;;;5097027;28;20203;-64
2022/01/30 00:57:26;;;;;;;0.40;0.30;;;;;;;;;;5096647;28;20203;-64
2022/01/30 00:59:54;;;;;;;0.75;0.40;;;;;;;;;;5096869;28;20223;-64
2022/01/30 01:02:21;;;;;;;0.60;0.40;;;;;;;;;;5096764;28;20203;-63
2022/01/30 01:04:49;;;;;;;0.73;0.38;;;;;;;;;;5097115;28;20211;-64
2022/01/30 01:07:21;;;;;;;0.60;0.50;;;;;;;;;;5097032;28;20239;-62
2022/01/30 01:09:58;;;;;;;1.40;0.60;;;;;;;;;;5096637;28;20206;-63
2022/01/30 01:12:55;;;;;;;1.13;0.43;;;;;;;;;;5097075;28;20210;-63
2022/01/30 01:23:23;;;;;;;0.90;0.40;;;;;;;;;;5049789;28;20522;-63
2022/01/30 01:23:51;;;;;;;1.10;0.73;;;;;;;;;;5086828;28;20505;-63
2022/01/30 01:26:20;;;;;;;0.88;0.50;;;;;;;;;;5084369;28;20223;-63
2022/01/30 01:28:48;;;;;;;0.50;0.40;;;;;;;;;;5086434;28;20873;-63
2022/01/30 01:31:16;;;;;;;1.00;0.50;;;;;;;;;;5094953;28;20207;-63
2022/01/30 01:33:58;;;;;;;1.00;0.70;;;;;;;;;;5096622;28;20579;-64
2022/01/30 01:36:26;;;;;;;0.98;0.40;;;;;;;;;;5096007;28;20192;-64
2022/01/30 01:38:53;;;;;;;1.25;0.40;;;;;;;;;;5096539;28;20223;-64
2022/01/30 01:41:24;;;;;;;1.23;0.30;;;;;;;;;;5096292;28;20463;-63
2022/01/30 01:43:52;;;;;;;0.50;0.30;;;;;;;;;;5096955;28;20250;-63
2022/01/30 01:46:23;;;;;;;1.13;0.40;;;;;;;;;;5097139;28;20211;-63
2022/01/30 01:48:52;;;;;;;0.82;0.60;;;;;;;;;;5096639;28;20199;-63
2022/01/30 01:51:23;;;;;;;1.08;0.50;;;;;;;;;;5097089;28;20297;-63
2022/01/30 01:53:51;;;;;;;1.50;0.45;;;;;;;;;;5096354;28;20212;-63
2022/01/30 01:56:19;;;;;;;1.13;0.40;;;;;;;;;;5096268;28;20207;-63
2022/01/30 01:58:48;;;;;;;0.93;0.40;;;;;;;;;;5096857;28;20228;-63
2022/01/30 02:01:15;;;;;;;0.70;0.35;;;;;;;;;;5089296;28;20200;-63
2022/01/30 02:03:43;;;;;;;1.30;0.40;;;;;;;;;;5083494;28;20455;-63
2022/01/30 02:06:14;;;;;;;1.17;0.60;;;;;;;;;;5076484;28;20205;-64
2022/01/30 02:08:48;;;;;;;1.17;0.40;;;;;;;;;;5079435;28;20229;-63
2022/01/30 02:11:27;;;;;;;1.83;0.45;;;;;;;;;;5079766;28;20211;-63
2022/01/30 02:14:18;;;;;;;0.60;0.50;;;;;;;;;;5079869;28;20230;-63
2022/01/30 02:25:15;;;;;;;1.10;0.52;;;;;;;;;;5079699;28;20195;-63
2022/01/30 02:27:43;;;;;;;0.82;0.45;;;;;;;;;;5096886;28;20207;-63
2022/01/30 02:30:13;;;;;;;0.98;0.40;;;;;;;;;;5100116;28;20802;-63
2022/01/30 02:32:41;;;;;;;1.17;0.45;;;;;;;;;;5099900;28;20818;-63
2022/01/30 02:35:08;;;;;;;0.65;0.30;;;;;;;;;;5099768;28;20238;-63
2022/01/30 02:37:37;;;;;;;1.00;0.50;;;;;;;;;;5099935;28;20490;-64
2022/01/30 02:40:07;;;;;;;1.33;0.40;;;;;;;;;;5099696;28;20230;-63
2022/01/30 02:42:38;;;;;;;0.65;0.35;;;;;;;;;;5099851;28;20314;-63
2022/01/30 02:45:09;;;;;;;0.65;0.38;;;;;;;;;;5099707;28;20199;-64
2022/01/30 02:47:52;;;;;;;0.80;0.40;;;;;;;;;;5099493;28;20203;-63
2022/01/30 02:50:32;;;;;;;0.60;0.40;;;;;;;;;;5099313;28;20601;-63
2022/01/30 02:53:04;;;;;;;0.30;0.30;;;;;;;;;;5099303;28;20199;-63
2022/01/30 02:55:31;;;;;;;0.65;0.38;;;;;;;;;;5099842;28;20310;-63
2022/01/30 02:57:59;;;;;;;0.93;0.57;;;;;;;;;;5099993;28;20226;-65
2022/01/30 03:00:26;;;;;;;1.10;0.50;;;;;;;;;;5099317;28;20227;-64
2022/01/30 03:02:53;;;;;;;0.98;0.60;;;;;;;;;;5099338;28;20215;-64
2022/01/30 03:05:21;;;;;;;0.95;0.50;;;;;;;;;;5099780;28;20227;-63
2022/01/30 03:07:48;;;;;;;0.95;0.35;;;;;;;;;;5098592;28;20246;-63
2022/01/30 03:10:17;;;;;;;1.15;0.40;;;;;;;;;;5099310;28;20598;-63
2022/01/30 03:12:44;;;;;;;0.55;0.30;;;;;;;;;;5099436;28;20219;-63
2022/01/30 03:15:12;;;;;;;1.33;0.40;;;;;;;;;;5099252;28;20215;-63
2022/01/30 03:17:41;;;;;;;0.80;0.40;;;;;;;;;;5098215;28;20282;-63
2022/01/30 03:20:09;;;;;;;0.68;0.40;;;;;;;;;;5099230;28;20263;-63
2022/01/30 03:22:36;;;;;;;0.73;0.40;;;;;;;;;;5098456;28;20211;-64
2022/01/30 03:25:05;;;;;;;0.43;0.30;;;;;;;;;;5093361;28;20200;-63
2022/01/30 03:27:33;;;;;;;0.50;0.30;;;;;;;;;;5089718;28;20530;-63
2022/01/30 03:30:06;;;;;;;0.88;0.32;;;;;;;;;;5088381;28;20192;-63
2022/01/30 03:32:33;;;;;;;1.05;0.40;;;;;;;;;;5087465;28;20197;-63
2022/01/30 03:35:01;;;;;;;0.50;0.30;;;;;;;;;;5080436;28;20196;-63
2022/01/30 03:37:28;;;;;;;0.90;0.50;;;;;;;;;;5077922;28;20231;-63
2022/01/30 03:39:56;;;;;;;0.90;0.50;;;;;;;;;;5077081;28;20672;-63
2022/01/30 03:42:23;;;;;;;0.80;0.50;;;;;;;;;;5090669;28;20207;-63
2022/01/30 03:44:52;;;;;;;0.85;0.50;;;;;;;;;;5098196;28;20214;-63
2022/01/30 03:47:20;;;;;;;0.82;0.50;;;;;;;;;;5098081;28;20214;-63
2022/01/30 03:49:47;;;;;;;1.38;0.55;;;;;;;;;;5098323;28;20242;-63
2022/01/30 03:52:16;;;;;;;0.88;0.50;;;;;;;;;;5097987;28;20203;-64
2022/01/30 03:54:43;;;;;;;0.60;0.40;;;;;;;;;;5098232;28;20306;-63
2022/01/30 03:57:11;;;;;;;0.70;0.38;;;;;;;;;;5098277;28;20204;-63
2022/01/30 03:59:38;;;;;;;1.30;0.45;;;;;;;;;;5098105;28;20322;-64
2022/01/30 04:02:07;;;;;;;1.05;0.50;;;;;;;;;;5098357;28;20483;-63
2022/01/30 04:04:35;;;;;;;1.30;0.63;;;;;;;;;;5098263;28;20222;-64
2022/01/30 04:07:02;;;;;;;2.13;0.70;;;;;;;;;;5098227;28;20527;-63
2022/01/30 04:09:30;;;;;;;1.45;0.60;;;;;;;;;;5098144;28;20235;-64
2022/01/30 04:11:57;;;;;;;3.08;0.70;;;;;;;;;;5098679;28;20211;-64
2022/01/30 04:14:25;;;;;;;2.53;0.70;;;;;;;;;;5098738;28;20206;-64
2022/01/30 04:16:53;;;;;;;2.90;0.68;;;;;;;;;;5082443;28;20211;-63
2022/01/30 04:19:22;;;;;;;1.10;0.50;;;;;;;;;;5098292;28;20238;-63
2022/01/30 04:21:50;;;;;;;1.00;0.50;;;;;;;;;;5098516;28;20214;-63
2022/01/30 04:24:17;;;;;;;1.77;0.70;;;;;;;;;;5098415;28;20650;-63
2022/01/30 04:26:44;;;;;;;1.30;0.60;;;;;;;;;;5098418;28;20214;-64
2022/01/30 04:29:11;;;;;;;1.35;0.70;;;;;;;;;;5098080;28;20200;-64
2022/01/30 04:31:39;;;;;;;2.00;0.80;;;;;;;;;;5097812;28;20804;-64
2022/01/30 04:34:07;;;;;;;1.15;0.60;;;;;;;;;;5098240;28;20481;-64
2022/01/30 04:36:41;;;;;;;3.00;0.60;;;;;;;;;;5097925;28;20204;-64
2022/01/30 04:39:16;;;;;;;2.42;0.60;;;;;;;;;;5098528;28;20265;-63
2022/01/30 04:42:08;;;;;;;0.60;0.50;;;;;;;;;;5098022;28;20636;-64
2022/01/30 04:53:12;;;;;;;1.02;0.50;;;;;;;;;;5097476;28;20195;-64
2022/01/30 04:58:49;;;;;;;1.08;0.50;;;;;;;;;;5035749;28;20610;-63
2022/01/30 05:01:22;;;;;;;0.63;0.50;;;;;;;;;;5088718;28;20318;-64
2022/01/30 05:04:01;;;;;;;1.70;0.50;;;;;;;;;;5097611;28;20204;-64
2022/01/30 05:06:52;;;;;;;1.27;0.68;;;;;;;;;;5097256;28;20214;-63
2022/01/30 05:09:21;;;;;;;0.93;0.60;;;;;;;;;;5097454;28;20294;-63
2022/01/30 05:11:48;;;;;;;1.65;0.60;;;;;;;;;;5097472;28;20203;-63
2022/01/30 05:14:19;;;;;;;0.95;0.60;;;;;;;;;;5097096;28;20204;-63
2022/01/30 05:16:47;;;;;;;1.40;0.50;;;;;;;;;;5097740;28;20208;-64
2022/01/30 05:19:15;;;;;;;1.40;0.60;;;;;;;;;;5097097;28;20214;-63
2022/01/30 05:21:43;;;;;;;1.67;0.70;;;;;;;;;;5097442;28;20195;-63
2022/01/30 05:24:11;;;;;;;1.40;0.60;;;;;;;;;;5097837;28;20204;-64
2022/01/30 05:26:42;;;;;;;1.27;0.68;;;;;;;;;;5097517;28;20207;-63
2022/01/30 05:29:09;;;;;;;2.40;0.60;;;;;;;;;;5096929;28;20211;-64
2022/01/30 05:31:37;;;;;;;1.40;0.70;;;;;;;;;;5097325;28;20214;-64
2022/01/30 05:34:04;;;;;;;0.93;0.38;;;;;;;;;;5096930;28;20204;-63
2022/01/30 05:36:32;;;;;;;1.00;0.60;;;;;;;;;;5097537;28;20203;-64
2022/01/30 05:39:00;;;;;;;1.10;0.70;;;;;;;;;;5097769;28;20203;-64
2022/01/30 05:41:29;;;;;;;1.35;0.70;;;;;;;;;;5099299;28;20232;-64
2022/01/30 05:44:00;;;;;;;1.58;0.68;;;;;;;;;;5101214;28;20506;-64
2022/01/30 05:46:33;;;;;;;2.13;0.90;;;;;;;;;;5101595;28;20662;-64
2022/01/30 05:49:00;;;;;;;1.00;0.60;;;;;;;;;;5100692;28;20278;-64
2022/01/30 05:51:27;;;;;;;1.40;0.77;;;;;;;;;;5101301;28;20199;-64
2022/01/30 05:53:55;;;;;;;1.20;0.65;;;;;;;;;;5101389;28;20210;-63
2022/01/30 05:56:23;;;;;;;1.48;0.60;;;;;;;;;;5101504;28;20472;-64
2022/01/30 05:58:50;;;;;;;1.83;0.60;;;;;;;;;;5101554;28;20277;-64
2022/01/30 06:01:19;;;;;;;0.80;0.50;;;;;;;;;;5101194;28;20227;-64
2022/01/30 06:03:46;;;;;;;1.33;0.60;;;;;;;;;;5101036;28;20282;-64
2022/01/30 06:06:13;;;;;;;1.23;0.50;;;;;;;;;;5101194;28;20211;-64
2022/01/30 06:08:44;;;;;;;1.02;0.60;;;;;;;;;;5100999;28;20342;-64
2022/01/30 06:11:12;;;;;;;1.00;0.50;;;;;;;;;;5101076;28;20863;-64
2022/01/30 06:13:40;;;;;;;1.05;0.60;;;;;;;;;;5100188;28;20199;-64
2022/01/30 06:16:07;;;;;;;1.00;0.45;;;;;;;;;;5100178;28;20218;-63
2022/01/30 06:18:36;;;;;;;2.30;0.77;;;;;;;;;;5100708;28;20605;-64
2022/01/30 06:21:03;;;;;;;1.27;0.73;;;;;;;;;;5100902;28;20533;-63
2022/01/30 06:23:31;;;;;;;1.13;0.45;;;;;;;;;;5100868;28;20196;-64
2022/01/30 06:25:58;;;;;;;1.08;0.50;;;;;;;;;;5101132;28;20214;-64
2022/01/30 06:28:25;;;;;;;1.02;0.57;;;;;;;;;;5100795;28;20294;-64
2022/01/30 06:30:53;;;;;;;1.42;0.63;;;;;;;;;;5100695;28;20215;-64
2022/01/30 06:33:20;;;;;;;0.60;0.45;;;;;;;;;;5101029;28;20505;-63
2022/01/30 06:35:50;;;;;;;1.50;0.77;;;;;;;;;;5100488;28;20226;-64
2022/01/30 06:38:17;;;;;;;1.52;0.65;;;;;;;;;;5100023;28;20199;-64
2022/01/30 06:40:45;;;;;;;1.13;0.50;;;;;;;;;;5100352;28;20253;-64
2022/01/30 06:43:12;;;;;;;0.95;0.50;;;;;;;;;;5100690;28;20210;-64
2022/01/30 06:45:42;;;;;;;1.00;0.60;;;;;;;;;;5099761;28;20210;-63
2022/01/30 06:48:10;;;;;;;1.20;0.60;;;;;;;;;;5100176;28;20219;-64
2022/01/30 06:50:37;;;;;;;1.10;0.50;;;;;;;;;;5100143;28;20273;-64
2022/01/30 06:53:06;;;;;;;0.63;0.40;;;;;;;;;;5099381;28;20204;-64
2022/01/30 06:55:33;;;;;;;1.23;0.60;;;;;;;;;;5100205;28;20211;-63
2022/01/30 06:58:00;;;;;;;1.05;0.40;;;;;;;;;;5099828;28;20212;-63
2022/01/30 07:00:28;;;;;;;1.55;0.50;;;;;;;;;;5100415;28;20662;-64
2022/01/30 07:02:55;;;;;;;1.48;0.70;;;;;;;;;;5099607;28;20200;-64
2022/01/30 07:05:23;;;;;;;0.80;0.50;;;;;;;;;;5100139;28;20621;-64
2022/01/30 07:07:51;;;;;;;0.68;0.40;;;;;;;;;;5099927;28;20234;-64
2022/01/30 07:10:19;;;;;;;0.75;0.60;;;;;;;;;;5099935;28;20199;-64
2022/01/30 07:12:47;;;;;;;0.85;0.63;;;;;;;;;;5099736;28;20212;-64
2022/01/30 07:15:15;;;;;;;1.40;0.55;;;;;;;;;;5099247;28;20204;-64
2022/01/30 07:17:42;;;;;;;1.17;0.52;;;;;;;;;;5099609;28;20648;-64
2022/01/30 07:20:10;;;;;;;1.08;0.50;;;;;;;;;;5099900;28;20223;-64
2022/01/30 07:22:37;;;;;;;1.80;0.47;;;;;;;;;;5100078;28;20215;-64
2022/01/30 07:25:07;;;;;;;1.33;0.60;;;;;;;;;;5099040;28;20211;-64
2022/01/30 07:27:36;;;;;;;0.60;0.30;;;;;;;;;;5099016;28;20195;-64
2022/01/30 07:30:04;;;;;;;0.88;0.40;;;;;;;;;;5098872;28;20218;-64
2022/01/30 07:32:31;;;;;;;1.30;0.50;;;;;;;;;;5099785;28;20203;-64
2022/01/30 07:34:58;;;;;;;0.63;0.50;;;;;;;;;;5099570;28;20218;-64
2022/01/30 07:37:26;;;;;;;0.60;0.50;;;;;;;;;;5099033;28;20204;-64
2022/01/30 07:39:54;;;;;;;1.17;0.50;;;;;;;;;;5098341;28;20223;-64
2022/01/30 07:42:22;;;;;;;1.20;0.60;;;;;;;;;;5098536;28;20211;-64
2022/01/30 07:44:50;;;;;;;1.20;0.50;;;;;;;;;;5098835;28;20265;-64
2022/01/30 07:47:18;;;;;;;1.00;0.40;;;;;;;;;;5098737;28;20715;-64
2022/01/30 07:49:49;;;;;;;1.63;0.50;;;;;;;;;;5098914;28;20215;-63
2022/01/30 07:52:16;;;;;;;1.15;0.40;;;;;;;;;;5098880;28;20200;-64
2022/01/30 07:54:44;;;;;;;0.70;0.50;;;;;;;;;;5098683;28;20244;-63
2022/01/30 07:57:11;;;;;;;1.38;0.60;;;;;;;;;;5098999;28;20215;-63
2022/01/30 07:59:39;;;;;;;1.23;0.50;;;;;;;;;;5098393;28;20234;-63
2022/01/30 08:02:07;;;;;;;1.63;0.65;;;;;;;;;;5098272;28;20239;-63
2022/01/30 08:04:35;;;;;;;1.38;0.50;;;;;;;;;;5098542;28;20210;-64
2022/01/30 08:07:02;;;;;;;1.02;0.50;;;;;;;;;;5098757;28;20203;-63
2022/01/30 08:09:29;;;;;;;1.75;0.60;;;;;;;;;;5098508;28;20231;-63
2022/01/30 08:11:57;;;;;;;0.65;0.35;;;;;;;;;;5097924;28;20598;-64
2022/01/30 08:14:24;;;;;;;1.40;0.60;;;;;;;;;;5097601;28;20204;-64
2022/01/30 08:16:52;;;;;;;1.08;0.50;;;;;;;;;;5098232;28;20214;-63
2022/01/30 08:19:23;;;;;;;0.88;0.40;;;;;;;;;;5097754;28;20196;-64
2022/01/30 08:21:50;;;;;;;1.48;0.52;;;;;;;;;;5097965;28;20323;-63
2022/01/30 08:24:19;;;;;;;1.48;0.57;;;;;;;;;;5094145;28;20481;-63
2022/01/30 08:26:46;;;;;;;0.77;0.65;;;;;;;;;;5077301;28;20478;-63
2022/01/30 08:29:14;;;;;;;1.38;0.68;;;;;;;;;;5089270;28;20710;-63
2022/01/30 08:31:41;;;;;;;1.50;0.68;;;;;;;;;;5097741;28;20219;-63
2022/01/30 08:34:08;;;;;;;1.05;0.73;;;;;;;;;;5096465;28;20199;-63
2022/01/30 08:36:37;;;;;;;1.73;0.90;;;;;;;;;;5097060;28;20578;-64
2022/01/30 08:39:05;;;;;;;2.00;0.70;;;;;;;;;;5097344;28;20248;-63
2022/01/30 08:41:32;;;;;;;1.55;0.82;;;;;;;;;;5096396;28;20286;-63
2022/01/30 08:43:59;;;;;;;1.23;0.63;;;;;;;;;;5096319;28;20207;-63
2022/01/30 08:46:27;;;;;;;1.58;0.70;;;;;;;;;;5096037;28;20204;-63
2022/01/30 08:48:54;;;;;;;2.10;0.65;;;;;;;;;;5097230;28;20203;-63
2022/01/30 08:51:22;;;;;;;1.67;0.80;;;;;;;;;;5096310;28;20199;-63
2022/01/30 08:53:51;;;;;;;1.17;0.75;;;;;;;;;;5096547;28;20204;-63
2022/01/30 08:56:21;;;;;;;1.33;0.80;;;;;;;;;;5096898;28;20488;-63
2022/01/30 08:58:49;;;;;;;1.13;0.68;;;;;;;;;;5096735;28;20207;-63
2022/01/30 09:01:16;;;;;;;1.40;0.73;;;;;;;;;;5096119;28;20225;-63
2022/01/30 09:03:44;;;;;;;2.35;0.90;;;;;;;;;;5096657;28;20283;-63
2022/01/30 09:06:12;;;;;;;1.90;0.90;;;;;;;;;;5095119;28;20199;-62
2022/01/30 09:08:39;;;;;;;1.83;0.75;;;;;;;;;;5094969;28;20312;-63
2022/01/30 09:11:08;;;;;;;2.00;0.90;;;;;;;;;;5095883;28;20200;-63
2022/01/30 09:13:35;;;;;;;1.27;0.70;;;;;;;;;;5095415;28;20204;-63
2022/01/30 09:16:03;;;;;;;1.48;0.80;;;;;;;;;;5095968;28;20598;-63
2022/01/30 09:18:31;;;;;;;2.30;0.80;;;;;;;;;;5095980;28;20203;-63
2022/01/30 09:20:58;;;;;;;1.40;0.70;;;;;;;;;;5096073;28;20234;-63
2022/01/30 09:23:26;;;;;;;2.30;1.00;;;;;;;;;;5096260;28;20204;-63
2022/01/30 09:25:53;;;;;;;1.10;0.60;;;;;;;;;;5096062;28;20474;-63
2022/01/30 09:28:22;;;;;;;0.88;0.70;;;;;;;;;;5096034;28;20203;-63
2022/01/30 09:30:49;;;;;;;7.97;6.22;;;;;;;;;;5096318;28;20220;-63
2022/01/30 09:33:17;;;;;;;11.45;9.07;;;;;;;;;;5096105;28;20210;-63
2022/01/30 09:35:44;;;;;;;7.05;5.60;;;;;;;;;;5096663;28;20274;-63
2022/01/30 09:38:11;;;;;;;6.78;6.18;;;;;;;;;;5096857;28;20575;-64
2022/01/30 09:40:39;;;;;;;8.25;7.55;;;;;;;;;;5096948;28;20204;-64
2022/01/30 09:43:06;;;;;;;7.75;7.05;;;;;;;;;;5096816;28;20222;-63
2022/01/30 09:45:35;;;;;;;7.15;6.55;;;;;;;;;;5096953;28;20605;-64
2022/01/30 09:48:03;;;;;;;7.07;6.47;;;;;;;;;;5096828;28;20502;-64
2022/01/30 09:50:31;;;;;;;6.95;6.32;;;;;;;;;;5096598;28;20195;-63
2022/01/30 09:52:58;;;;;;;6.80;6.15;;;;;;;;;;5096179;28;20211;-63
2022/01/30 09:55:26;;;;;;;6.40;5.90;;;;;;;;;;5096616;28;20688;-63
2022/01/30 09:57:53;;;;;;;9.25;8.48;;;;;;;;;;5096705;28;20246;-63
2022/01/30 10:00:21;;;;;;;17.05;15.55;;;;;;;;;;5096633;28;20214;-63
2022/01/30 10:02:50;;;;;;;16.00;14.60;;;;;;;;;;5096724;28;20230;-62
2022/01/30 10:05:18;;;;;;;12.88;11.88;;;;;;;;;;5096863;28;20215;-63
2022/01/30 10:07:48;;;;;;;12.85;11.75;;;;;;;;;;5096043;28;20242;-63
2022/01/30 10:10:18;;;;;;;11.77;10.70;;;;;;;;;;5096076;28;20204;-63
2022/01/30 10:13:01;;;;;;;11.75;10.75;;;;;;;;;;5096708;28;20199;-64
2022/01/30 10:15:29;;;;;;;11.38;10.38;;;;;;;;;;5096673;28;20478;-64
2022/01/30 10:17:58;;;;;;;10.77;9.88;;;;;;;;;;5096341;28;20200;-64
2022/01/30 10:20:26;;;;;;;9.80;8.80;;;;;;;;;;5089569;28;20503;-64
2022/01/30 10:22:55;;;;;;;9.57;8.68;;;;;;;;;;5075584;28;20236;-64
2022/01/30 10:25:23;;;;;;;9.07;8.27;;;;;;;;;;5076120;28;20205;-64
2022/01/30 10:27:58;;;;;;;8.70;8.00;;;;;;;;;;5076690;28;20208;-64
2022/01/30 10:30:25;;;;;;;8.60;7.80;;;;;;;;;;5082648;28;20214;-64
2022/01/30 10:32:56;;;;;;;8.40;6.95;;;;;;;;;;5088969;28;20196;-64
2022/01/30 10:35:27;;;;;;;8.00;7.30;;;;;;;;;;5082194;28;20289;-63
2022/01/30 10:37:54;;;;;;;6.95;6.35;;;;;;;;;;5079917;28;20204;-64
2022/01/30 10:40:34;;;;;;;7.65;6.78;;;;;;;;;;5094608;28;20200;-64
2022/01/30 10:43:02;;;;;;;6.82;6.22;;;;;;;;;;5095552;28;20211;-64
2022/01/30 10:45:30;;;;;;;6.65;5.95;;;;;;;;;;5083990;28;20588;-64
2022/01/30 10:48:11;;;;;;;6.05;5.53;;;;;;;;;;5097799;28;20212;-64
2022/01/30 10:50:42;;;;;;;5.97;5.47;;;;;;;;;;5098502;28;20288;-64
2022/01/30 10:53:17;;;;;;;5.90;5.40;;;;;;;;;;5098959;28;20253;-64
2022/01/30 10:55:46;;;;;;;5.65;5.05;;;;;;;;;;5085289;28;20196;-64
2022/01/30 10:58:14;;;;;;;6.38;5.00;;;;;;;;;;5099097;28;20208;-64
2022/01/30 11:00:44;;;;;;;5.05;4.55;;;;;;;;;;5098752;28;20323;-64
2022/01/30 11:03:12;;;;;;;5.25;4.75;;;;;;;;;;5098206;28;20294;-64
2022/01/30 11:05:59;;;;;;;4.90;4.40;;;;;;;;;;5098090;28;20617;-64
2022/01/30 11:08:28;;;;;;;4.53;4.13;;;;;;;;;;5098409;28;20235;-64
2022/01/30 11:11:05;;;;;;;5.63;4.47;;;;;;;;;;5098689;28;20522;-64
2022/01/30 11:13:46;;;;;;;5.13;4.40;;;;;;;;;;5097985;28;20203;-65
2022/01/30 11:19:02;;;;;;;4.15;3.75;;;;;;;;;;5097713;28;20218;-67
2022/01/30 11:21:31;;;;;;;3.97;3.58;;;;;;;;;;5097771;28;20227;-64
2022/01/30 11:24:00;;;;;;;4.10;3.67;;;;;;;;;;5098158;28;20203;-64
2022/01/30 11:26:27;;;;;;;4.45;3.70;;;;;;;;;;5097972;28;20710;-65
2022/01/30 11:28:55;;;;;;;3.90;3.38;;;;;;;;;;5078350;28;20215;-64
2022/01/30 11:31:22;;;;;;;3.40;3.10;;;;;;;;;;5078187;28;20197;-64
2022/01/30 11:33:50;;;;;;;4.10;3.53;;;;;;;;;;5078246;28;20487;-64
2022/01/30 11:36:18;;;;;;;4.28;3.40;;;;;;;;;;5078222;28;20307;-63
2022/01/30 11:38:47;;;;;;;3.95;3.00;;;;;;;;;;5077547;28;20204;-64
2022/01/30 11:41:15;;;;;;;3.78;3.17;;;;;;;;;;5077700;28;20204;-64
2022/01/30 11:43:43;;;;;;;3.40;2.90;;;;;;;;;;5077613;28;20205;-64
2022/01/30 11:46:15;;;;;;;5.25;3.40;;;;;;;;;;5078210;28;20703;-64
2022/01/30 11:48:42;;;;;;;4.10;2.90;;;;;;;;;;5085578;28;20591;-64
2022/01/30 11:51:10;;;;;;;3.97;3.00;;;;;;;;;;5098031;28;20204;-64
2022/01/30 11:53:38;;;;;;;4.57;3.00;;;;;;;;;;5098030;28;20203;-64
2022/01/30 11:56:07;;;;;;;4.38;2.95;;;;;;;;;;5097280;28;20261;-64
2022/01/30 11:58:41;;;;;;;3.15;2.50;;;;;;;;;;5098150;28;20473;-64
2022/01/30 12:01:26;;;;;;;3.45;2.55;;;;;;;;;;5097285;28;20214;-64
2022/01/30 12:03:54;;;;;;;4.15;2.65;;;;;;;;;;5087027;28;20213;-64
2022/01/30 12:06:35;;;;;;;3.30;2.53;;;;;;;;;;5097288;28;20586;-64
2022/01/30 12:09:04;;;;;;;3.05;2.38;;;;;;;;;;5097761;28;20314;-64
2022/01/30 12:11:50;;;;;;;3.13;2.38;;;;;;;;;;5097923;28;20203;-64
2022/01/30 12:14:36;;;;;;;3.08;2.30;;;;;;;;;;5095729;28;20215;-64
2022/01/30 12:17:05;;;;;;;3.65;2.45;;;;;;;;;;5096680;28;20215;-64
2022/01/30 12:19:50;;;;;;;4.07;2.75;;;;;;;;;;5097216;28;20211;-64
2022/01/30 12:22:36;;;;;;;2.70;2.25;;;;;;;;;;5093257;28;20227;-64
2022/01/30 12:25:18;;;;;;;4.22;2.50;;;;;;;;;;5096929;28;20571;-64
2022/01/30 12:27:49;;;;;;;2.88;2.30;;;;;;;;;;5096823;28;20603;-64
2022/01/30 12:30:30;;;;;;;3.92;2.15;;;;;;;;;;5096322;28;20575;-64
2022/01/30 12:32:59;;;;;;;3.45;2.25;;;;;;;;;;5096668;28;20571;-64
2022/01/30 12:35:27;;;;;;;4.38;2.40;;;;;;;;;;5096499;28;20196;-64
2022/01/30 12:37:54;;;;;;;2.55;1.95;;;;;;;;;;5096875;28;20601;-64
2022/01/30 12:40:22;;;;;;;2.22;2.00;;;;;;;;;;5096741;28;20199;-64
2022/01/30 12:42:49;;;;;;;2.40;1.67;;;;;;;;;;5096796;28;20219;-63
2022/01/30 12:45:18;;;;;;;2.40;1.67;;;;;;;;;;5097159;28;20203;-64
2022/01/30 12:47:48;;;;;;;2.35;1.90;;;;;;;;;;5096824;28;20213;-63
2022/01/30 12:50:18;;;;;;;3.22;1.80;;;;;;;;;;5096320;28;20199;-63
2022/01/30 12:52:49;;;;;;;2.78;1.80;;;;;;;;;;5096760;28;20199;-63
2022/01/30 12:55:17;;;;;;;3.55;2.30;;;;;;;;;;5096505;28;20627;-64
2022/01/30 12:57:45;;;;;;;3.90;2.05;;;;;;;;;;5096167;28;20211;-63
2022/01/30 13:00:13;;;;;;;5.47;2.92;;;;;;;;;;5096088;28;20204;-63
2022/01/30 13:02:54;;;;;;;6.13;3.53;;;;;;;;;;5096407;28;20223;-63
2022/01/30 13:05:24;;;;;;;7.88;4.32;;;;;;;;;;5095768;28;20235;-63
2022/01/30 13:07:55;;;;;;;6.57;3.33;;;;;;;;;;5096407;28;20235;-63
2022/01/30 13:10:23;;;;;;;5.32;2.83;;;;;;;;;;5095970;28;20199;-65
2022/01/30 13:12:51;;;;;;;5.05;2.85;;;;;;;;;;5090058;28;20206;-65
2022/01/30 13:15:20;;;;;;;4.47;2.83;;;;;;;;;;5095665;28;20203;-64
2022/01/30 13:17:47;;;;;;;4.45;3.45;;;;;;;;;;5095206;28;20294;-64
2022/01/30 13:20:15;;;;;;;9.30;5.60;;;;;;;;;;5096103;28;20520;-64
2022/01/30 13:22:45;;;;;;;11.40;7.72;;;;;;;;;;5096209;28;20227;-64
2022/01/30 13:25:13;;;;;;;8.55;6.05;;;;;;;;;;5096076;28;20208;-64
2022/01/30 13:27:41;;;;;;;10.00;5.53;;;;;;;;;;5096115;28;20214;-64
2022/01/30 13:30:09;;;;;;;7.70;5.10;;;;;;;;;;5095527;28;20196;-64
2022/01/30 13:32:38;;;;;;;8.50;4.75;;;;;;;;;;5096346;28;20191;-64
2022/01/30 13:35:11;;;;;;;6.82;4.95;;;;;;;;;;5095966;28;20203;-64
2022/01/30 13:37:39;;;;;;;9.00;4.78;;;;;;;;;;5096302;28;20689;-64
2022/01/30 13:40:18;;;;;;;6.80;4.47;;;;;;;;;;5095834;28;20268;-64
2022/01/30 13:42:49;;;;;;;6.05;4.40;;;;;;;;;;5095739;28;20310;-64
2022/01/30 13:48:07;;;;;;;6.20;4.53;;;;;;;;;;5095505;28;20195;-64
2022/01/30 13:50:35;;;;;;;6.00;4.22;;;;;;;;;;5095897;28;20523;-64
2022/01/30 13:53:05;;;;;;;5.43;3.55;;;;;;;;;;5096135;28;20211;-64
2022/01/30 13:55:34;;;;;;;5.80;4.00;;;;;;;;;;5094925;28;20212;-64
2022/01/30 13:58:02;;;;;;;5.32;3.75;;;;;;;;;;5095489;28;20219;-64
2022/01/30 14:00:31;;;;;;;7.80;3.70;;;;;;;;;;5095608;28;20214;-63
2022/01/30 14:02:59;;;;;;;6.68;3.90;;;;;;;;;;5097870;28;20258;-63
2022/01/30 14:05:27;;;;;;;6.38;3.60;;;;;;;;;;5099699;28;20211;-64
2022/01/30 14:07:55;;;;;;;7.53;3.50;;;;;;;;;;5099413;28;20242;-63
2022/01/30 14:10:23;;;;;;;6.38;3.63;;;;;;;;;;5099442;28;20208;-63
2022/01/30 14:12:55;;;;;;;7.88;3.60;;;;;;;;;;5098451;28;20207;-64
2022/01/30 14:15:22;;;;;;;7.65;3.40;;;;;;;;;;5098233;28;20203;-64
2022/01/30 14:18:04;;;;;;;6.35;3.50;;;;;;;;;;5098606;28;20196;-64
2022/01/30 14:20:32;;;;;;;5.75;3.13;;;;;;;;;;5098625;28;20215;-63
2022/01/30 14:23:04;;;;;;;5.13;3.05;;;;;;;;;;5099935;28;20255;-63
2022/01/30 14:25:32;;;;;;;5.50;3.30;;;;;;;;;;5098473;28;20298;-63
2022/01/30 14:28:00;;;;;;;5.82;3.00;;;;;;;;;;5098838;28;20203;-63
2022/01/30 14:30:36;;;;;;;5.78;2.95;;;;;;;;;;5099095;28;20214;-63
2022/01/30 14:33:04;;;;;;;6.25;3.60;;;;;;;;;;5098879;28;20195;-64
2022/01/30 14:35:35;;;;;;;5.07;2.88;;;;;;;;;;5099103;28;20204;-64
2022/01/30 14:38:03;;;;;;;4.75;2.80;;;;;;;;;;5098893;28;20208;-64
2022/01/30 14:40:31;;;;;;;5.63;2.83;;;;;;;;;;5098526;28;20257;-63
2022/01/30 14:42:59;;;;;;;4.40;2.63;;;;;;;;;;5098347;28;20227;-64
2022/01/30 14:45:28;;;;;;;4.13;2.22;;;;;;;;;;5099158;28;20264;-63
2022/01/30 14:47:56;;;;;;;4.97;2.80;;;;;;;;;;5099055;28;20222;-63
2022/01/30 14:50:23;;;;;;;4.57;2.30;;;;;;;;;;5098855;28;20203;-63
2022/01/30 14:52:51;;;;;;;4.40;2.45;;;;;;;;;;5099079;28;20199;-63
2022/01/30 14:55:19;;;;;;;3.97;2.47;;;;;;;;;;5099111;28;20557;-64
2022/01/30 14:57:48;;;;;;;4.53;2.50;;;;;;;;;;5097736;28;20199;-63
2022/01/30 15:00:18;;;;;;;4.15;2.40;;;;;;;;;;5098384;28;20200;-63
2022/01/30 15:02:47;;;;;;;4.47;2.22;;;;;;;;;;5098382;28;20228;-63
2022/01/30 15:05:14;;;;;;;5.18;2.47;;;;;;;;;;5098244;28;20204;-63
2022/01/30 15:07:42;;;;;;;4.32;2.53;;;;;;;;;;5098488;28;20541;-63
2022/01/30 15:10:10;;;;;;;4.35;2.10;;;;;;;;;;5098301;28;20250;-63
2022/01/30 15:12:40;;;;;;;4.72;2.22;;;;;;;;;;5098443;28;20210;-64
2022/01/30 15:15:08;;;;;;;4.63;2.33;;;;;;;;;;5097315;28;20196;-64
2022/01/30 15:17:38;;;;;;;4.50;2.22;;;;;;;;;;5098748;28;20207;-63
2022/01/30 15:20:08;;;;;;;3.88;2.17;;;;;;;;;;5098738;28;20202;-64
2022/01/30 15:22:35;;;;;;;6.63;2.45;;;;;;;;;;5098163;28;20204;-63
2022/01/30 15:25:03;;;;;;;4.82;3.25;;;;;;;;;;5098029;28;20204;-64
2022/01/30 15:27:31;;;;;;;11.27;5.95;;;;;;;;;;5098061;28;20202;-63